sensor_id;sensor_type;location;lat;lon;timestamp;pressure;altitude;pressure_sealevel;temperature;humidity
55077;BME280;40971;44.702;11.030;2022-09-01T00:02:15;100985.50;;;20.03;100.00
55077;BME280;40971;44.702;11.030;2022-09-01T00:04:43;101050.16;;;20.40;100.00
55077;BME280;40971;44.702;11.030;2022-09-01T00:07:10;101034.38;;;20.39;100.00
55077;BME280;40971;44.702;11.030;2022-09-01T00:09:37;100968.19;;;20.08;100.00
55077;BME280;40971;44.702;11.030;2022-09-01T00:12:05;101023.38;;;20.43;100.00
55077;BME280;40971;44.702;11.030;2022-09-01T00:14:34;101042.09;;;20.42;100.00
55077;BME280;40971;44.702;11.030;2022-09-01T00:17:05;101034.38;;;20.39;100.00
55077;BME280;40971;44.702;11.030;2022-09-01T00:19:32;101028.38;;;20.37;100.00
55077;BME280;40971;44.702;11.030;2022-09-01T00:21:58;101025.19;;;20.33;100.00
55077;BME280;40971;44.702;11.030;2022-09-01T00:24:25;100970.25;;;19.95;100.00
55077;BME280;40971;44.702;11.030;2022-09-01T00:26:52;101033.56;;;20.38;100.00
55077;BME280;40971;44.702;11.030;2022-09-01T00:29:18;100945.56;;;19.95;100.00
55077;BME280;40971;44.702;11.030;2022-09-01T00:31:44;101019.47;;;20.48;100.00
55077;BME280;40971;44.702;11.030;2022-09-01T00:34:10;101016.97;;;20.46;100.00
55077;BME280;40971;44.702;11.030;2022-09-01T00:36:36;101014.31;;;20.46;100.00
55077;BME280;40971;44.702;11.030;2022-09-01T00:39:03;101022.56;;;20.62;100.00
55077;BME280;40971;44.702;11.030;2022-09-01T00:41:31;100897.97;;;19.74;100.00
55077;BME280;40971;44.702;11.030;2022-09-01T00:44:04;100948.06;;;19.96;100.00
55077;BME280;40971;44.702;11.030;2022-09-01T00:46:33;101019.31;;;20.39;100.00
55077;BME280;40971;44.702;11.030;2022-09-01T00:49:03;101028.94;;;20.40;100.00
55077;BME280;40971;44.702;11.030;2022-09-01T00:51:32;101003.78;;;20.06;100.00
55077;BME280;40971;44.702;11.030;2022-09-01T00:54:00;101017.44;;;20.01;100.00
55077;BME280;40971;44.702;11.030;2022-09-01T00:56:26;101020.38;;;20.08;100.00
55077;BME280;40971;44.702;11.030;2022-09-01T00:58:52;101018.69;;;19.97;100.00
55077;BME280;40971;44.702;11.030;2022-09-01T01:01:18;101028.34;;;20.08;100.00
55077;BME280;40971;44.702;11.030;2022-09-01T01:03:44;101029.06;;;20.20;100.00
55077;BME280;40971;44.702;11.030;2022-09-01T01:06:12;101016.63;;;20.10;100.00
55077;BME280;40971;44.702;11.030;2022-09-01T01:08:43;101018.00;;;20.05;100.00
55077;BME280;40971;44.702;11.030;2022-09-01T01:11:21;101022.91;;;20.09;100.00
55077;BME280;40971;44.702;11.030;2022-09-01T01:13:51;101018.00;;;20.14;100.00
55077;BME280;40971;44.702;11.030;2022-09-01T01:16:20;101018.84;;;20.15;100.00
55077;BME280;40971;44.702;11.030;2022-09-01T01:18:46;101027.69;;;20.16;100.00
55077;BME280;40971;44.702;11.030;2022-09-01T01:21:19;100912.66;;;19.38;100.00
55077;BME280;40971;44.702;11.030;2022-09-01T01:24:27;101034.06;;;20.03;100.00
55077;BME280;40971;44.702;11.030;2022-09-01T01:26:53;101029.28;;;19.97;100.00
55077;BME280;40971;44.702;11.030;2022-09-01T01:29:21;101020.91;;;19.92;100.00
55077;BME280;40971;44.702;11.030;2022-09-01T01:31:48;101028.19;;;20.00;100.00
55077;BME280;40971;44.702;11.030;2022-09-01T01:34:16;100971.75;;;19.69;100.00
55077;BME280;40971;44.702;11.030;2022-09-01T01:36:42;100960.69;;;19.64;100.00
55077;BME280;40971;44.702;11.030;2022-09-01T01:39:14;101006.81;;;19.92;100.00
55077;BME280;40971;44.702;11.030;2022-09-01T01:41:41;100957.31;;;19.52;100.00
55077;BME280;40971;44.702;11.030;2022-09-01T01:44:11;101026.75;;;19.86;100.00
55077;BME280;40971;44.702;11.030;2022-09-01T01:46:42;101027.56;;;19.77;100.00
55077;BME280;40971;44.702;11.030;2022-09-01T01:49:10;101026.00;;;19.74;100.00
55077;BME280;40971;44.702;11.030;2022-09-01T01:51:38;100903.88;;;19.07;100.00
55077;BME280;40971;44.702;11.030;2022-09-01T01:54:03;101020.06;;;19.82;100.00
55077;BME280;40971;44.702;11.030;2022-09-01T01:56:33;100960.47;;;19.46;100.00
55077;BME280;40971;44.702;11.030;2022-09-01T01:59:02;100967.03;;;19.42;100.00
55077;BME280;40971;44.702;11.030;2022-09-01T02:01:28;101020.81;;;19.63;100.00
55077;BME280;40971;44.702;11.030;2022-09-01T02:03:57;101033.97;;;19.74;100.00
55077;BME280;40971;44.702;11.030;2022-09-01T02:06:24;101029.22;;;19.68;100.00
55077;BME280;40971;44.702;11.030;2022-09-01T02:08:55;101025.72;;;19.68;100.00
55077;BME280;40971;44.702;11.030;2022-09-01T02:11:24;101036.00;;;19.61;100.00
55077;BME280;40971;44.702;11.030;2022-09-01T02:13:51;101024.56;;;19.61;100.00
55077;BME280;40971;44.702;11.030;2022-09-01T02:16:21;101043.59;;;19.75;100.00
55077;BME280;40971;44.702;11.030;2022-09-01T02:18:47;101014.44;;;19.66;100.00
55077;BME280;40971;44.702;11.030;2022-09-01T02:21:17;101021.13;;;19.70;100.00
55077;BME280;40971;44.702;11.030;2022-09-01T02:24:04;101036.13;;;19.60;100.00
55077;BME280;40971;44.702;11.030;2022-09-01T02:26:38;101029.56;;;19.54;100.00
55077;BME280;40971;44.702;11.030;2022-09-01T02:29:11;101033.34;;;19.61;100.00
55077;BME280;40971;44.702;11.030;2022-09-01T02:31:42;101040.66;;;19.69;100.00
55077;BME280;40971;44.702;11.030;2022-09-01T02:34:09;101041.91;;;19.74;100.00
55077;BME280;40971;44.702;11.030;2022-09-01T02:36:42;101041.97;;;19.84;100.00
55077;BME280;40971;44.702;11.030;2022-09-01T02:39:16;101040.31;;;19.93;100.00
55077;BME280;40971;44.702;11.030;2022-09-01T02:41:42;101015.31;;;19.86;100.00
55077;BME280;40971;44.702;11.030;2022-09-01T02:44:08;101031.41;;;20.03;100.00
55077;BME280;40971;44.702;11.030;2022-09-01T02:46:38;101025.69;;;20.08;100.00
55077;BME280;40971;44.702;11.030;2022-09-01T02:49:07;101027.69;;;20.16;100.00
55077;BME280;40971;44.702;11.030;2022-09-01T02:51:40;101028.09;;;20.21;100.00
55077;BME280;40971;44.702;11.030;2022-09-01T02:54:06;101030.47;;;20.24;100.00
55077;BME280;40971;44.702;11.030;2022-09-01T02:56:32;101020.69;;;20.24;100.00
55077;BME280;40971;44.702;11.030;2022-09-01T02:58:57;100954.06;;;19.79;100.00
55077;BME280;40971;44.702;11.030;2022-09-01T03:01:28;101014.53;;;20.04;100.00
55077;BME280;40971;44.702;11.030;2022-09-01T03:03:57;101018.94;;;19.94;100.00
55077;BME280;40971;44.702;11.030;2022-09-01T03:06:23;101014.31;;;19.77;100.00
55077;BME280;40971;44.702;11.030;2022-09-01T03:08:53;100985.22;;;19.56;100.00
55077;BME280;40971;44.702;11.030;2022-09-01T03:11:21;101025.59;;;19.79;100.00
55077;BME280;40971;44.702;11.030;2022-09-01T03:13:48;101033.41;;;19.80;100.00
55077;BME280;40971;44.702;11.030;2022-09-01T03:16:14;100960.22;;;19.49;100.00
55077;BME280;40971;44.702;11.030;2022-09-01T03:18:40;101023.28;;;19.86;100.00
55077;BME280;40971;44.702;11.030;2022-09-01T03:21:07;101032.06;;;19.96;100.00
55077;BME280;40971;44.702;11.030;2022-09-01T03:23:35;101037.50;;;19.94;100.00
55077;BME280;40971;44.702;11.030;2022-09-01T03:26:02;101047.44;;;19.62;100.00
55077;BME280;40971;44.702;11.030;2022-09-01T03:28:28;101027.38;;;19.38;100.00
55077;BME280;40971;44.702;11.030;2022-09-01T03:30:55;101040.63;;;19.38;100.00
55077;BME280;40971;44.702;11.030;2022-09-01T03:33:23;101035.19;;;19.40;100.00
55077;BME280;40971;44.702;11.030;2022-09-01T03:35:49;100956.53;;;19.00;100.00
55077;BME280;40971;44.702;11.030;2022-09-01T03:38:16;100955.84;;;19.08;100.00
55077;BME280;40971;44.702;11.030;2022-09-01T03:40:45;101016.09;;;19.46;100.00
55077;BME280;40971;44.702;11.030;2022-09-01T03:43:11;101010.09;;;19.44;100.00
55077;BME280;40971;44.702;11.030;2022-09-01T03:45:38;101012.31;;;19.39;100.00
55077;BME280;40971;44.702;11.030;2022-09-01T03:48:06;101010.50;;;19.39;100.00
55077;BME280;40971;44.702;11.030;2022-09-01T03:50:35;100944.56;;;19.06;100.00
55077;BME280;40971;44.702;11.030;2022-09-01T03:53:06;101011.72;;;19.56;100.00
55077;BME280;40971;44.702;11.030;2022-09-01T03:55:34;101016.88;;;19.58;100.00
55077;BME280;40971;44.702;11.030;2022-09-01T03:58:05;101014.66;;;19.63;100.00
55077;BME280;40971;44.702;11.030;2022-09-01T04:00:37;101020.66;;;19.65;100.00
55077;BME280;40971;44.702;11.030;2022-09-01T04:03:05;101019.28;;;19.61;100.00
55077;BME280;40971;44.702;11.030;2022-09-01T04:05:33;101018.88;;;19.65;100.00
55077;BME280;40971;44.702;11.030;2022-09-01T04:08:02;100946.91;;;19.30;100.00
55077;BME280;40971;44.702;11.030;2022-09-01T04:10:32;101005.88;;;19.62;100.00
55077;BME280;40971;44.702;11.030;2022-09-01T04:13:04;100992.06;;;19.59;100.00
55077;BME280;40971;44.702;11.030;2022-09-01T04:15:37;101013.13;;;19.60;100.00
55077;BME280;40971;44.702;11.030;2022-09-01T04:18:04;101011.97;;;19.53;100.00
55077;BME280;40971;44.702;11.030;2022-09-01T04:20:48;101007.44;;;19.44;100.00
55077;BME280;40971;44.702;11.030;2022-09-01T04:25:55;101015.38;;;19.34;100.00
55077;BME280;40971;44.702;11.030;2022-09-01T04:28:24;101011.41;;;19.29;100.00
55077;BME280;40971;44.702;11.030;2022-09-01T04:30:55;101001.66;;;19.29;100.00
55077;BME280;40971;44.702;11.030;2022-09-01T04:33:26;101013.03;;;19.41;100.00
55077;BME280;40971;44.702;11.030;2022-09-01T04:36:02;100947.56;;;18.91;100.00
55077;BME280;40971;44.702;11.030;2022-09-01T04:38:28;101007.22;;;19.26;100.00
55077;BME280;40971;44.702;11.030;2022-09-01T04:40:55;101010.16;;;19.23;100.00
55077;BME280;40971;44.702;11.030;2022-09-01T04:43:22;101010.91;;;19.35;100.00
55077;BME280;40971;44.702;11.030;2022-09-01T04:45:48;101000.59;;;19.32;100.00
55077;BME280;40971;44.702;11.030;2022-09-01T04:48:17;100994.66;;;19.18;100.00
55077;BME280;40971;44.702;11.030;2022-09-01T04:50:43;100998.31;;;19.27;100.00
55077;BME280;40971;44.702;11.030;2022-09-01T04:53:09;100989.25;;;19.30;100.00
55077;BME280;40971;44.702;11.030;2022-09-01T04:55:38;100939.75;;;18.90;100.00
55077;BME280;40971;44.702;11.030;2022-09-01T04:58:05;101005.88;;;19.32;100.00
55077;BME280;40971;44.702;11.030;2022-09-01T05:00:30;100948.13;;;18.95;100.00
55077;BME280;40971;44.702;11.030;2022-09-01T05:03:01;100955.72;;;19.09;100.00
55077;BME280;40971;44.702;11.030;2022-09-01T05:05:38;101002.03;;;19.45;100.00
55077;BME280;40971;44.702;11.030;2022-09-01T05:08:07;101003.41;;;19.40;100.00
55077;BME280;40971;44.702;11.030;2022-09-01T05:10:39;101010.38;;;19.41;100.00
55077;BME280;40971;44.702;11.030;2022-09-01T05:13:08;100888.41;;;18.72;100.00
55077;BME280;40971;44.702;11.030;2022-09-01T05:15:36;101010.56;;;19.49;100.00
55077;BME280;40971;44.702;11.030;2022-09-01T05:18:02;101011.41;;;19.49;100.00
55077;BME280;40971;44.702;11.030;2022-09-01T05:20:39;101001.66;;;19.50;100.00
55077;BME280;40971;44.702;11.030;2022-09-01T05:23:11;101017.72;;;19.58;100.00
55077;BME280;40971;44.702;11.030;2022-09-01T05:25:39;101008.66;;;19.61;100.00
55077;BME280;40971;44.702;11.030;2022-09-01T05:28:06;101021.97;;;19.70;100.00
55077;BME280;40971;44.702;11.030;2022-09-01T05:30:34;100954.63;;;19.42;100.00
55077;BME280;40971;44.702;11.030;2022-09-01T05:33:01;101020.75;;;19.84;100.00
55077;BME280;40971;44.702;11.030;2022-09-01T05:35:27;101012.22;;;19.80;100.00
55077;BME280;40971;44.702;11.030;2022-09-01T05:37:53;101021.75;;;19.93;100.00
55077;BME280;40971;44.702;11.030;2022-09-01T05:40:19;100914.28;;;19.29;100.00
55077;BME280;40971;44.702;11.030;2022-09-01T05:42:45;101008.22;;;19.96;100.00
55077;BME280;40971;44.702;11.030;2022-09-01T05:45:12;101018.72;;;20.07;100.00
55077;BME280;40971;44.702;11.030;2022-09-01T05:47:39;101025.03;;;20.16;100.00
55077;BME280;40971;44.702;11.030;2022-09-01T05:50:06;101040.13;;;20.34;100.00
55077;BME280;40971;44.702;11.030;2022-09-01T05:52:37;101029.06;;;20.29;100.00
55077;BME280;40971;44.702;11.030;2022-09-01T05:55:03;101039.53;;;20.31;100.00
55077;BME280;40971;44.702;11.030;2022-09-01T05:57:34;100995.25;;;19.93;100.00
55077;BME280;40971;44.702;11.030;2022-09-01T06:00:02;101054.75;;;20.29;100.00
55077;BME280;40971;44.702;11.030;2022-09-01T06:02:28;101066.66;;;20.34;100.00
55077;BME280;40971;44.702;11.030;2022-09-01T06:04:54;101053.38;;;20.34;100.00
55077;BME280;40971;44.702;11.030;2022-09-01T06:07:21;101051.97;;;20.30;100.00
55077;BME280;40971;44.702;11.030;2022-09-01T06:09:48;101063.84;;;20.36;100.00
55077;BME280;40971;44.702;11.030;2022-09-01T06:12:15;101056.28;;;20.31;100.00
55077;BME280;40971;44.702;11.030;2022-09-01T06:14:48;101061.06;;;20.37;100.00
55077;BME280;40971;44.702;11.030;2022-09-01T06:17:14;101073.81;;;20.63;100.00
55077;BME280;40971;44.702;11.030;2022-09-01T06:19:41;101076.63;;;20.52;100.00
55077;BME280;40971;44.702;11.030;2022-09-01T06:22:08;101076.91;;;20.68;100.00
55077;BME280;40971;44.702;11.030;2022-09-01T06:24:35;101054.97;;;20.66;100.00
55077;BME280;40971;44.702;11.030;2022-09-01T06:27:01;101023.94;;;20.47;100.00
55077;BME280;40971;44.702;11.030;2022-09-01T06:29:26;101007.19;;;20.47;100.00
55077;BME280;40971;44.702;11.030;2022-09-01T06:31:55;101065.41;;;20.96;100.00
55077;BME280;40971;44.702;11.030;2022-09-01T06:34:20;101046.97;;;21.05;100.00
55077;BME280;40971;44.702;11.030;2022-09-01T06:36:47;101065.41;;;21.25;100.00
55077;BME280;40971;44.702;11.030;2022-09-01T06:39:16;101060.22;;;21.24;100.00
55077;BME280;40971;44.702;11.030;2022-09-01T06:41:48;101074.31;;;21.44;100.00
55077;BME280;40971;44.702;11.030;2022-09-01T06:44:18;101085.06;;;21.52;100.00
55077;BME280;40971;44.702;11.030;2022-09-01T06:46:48;101075.88;;;21.74;100.00
55077;BME280;40971;44.702;11.030;2022-09-01T06:49:14;101022.06;;;21.62;100.00
55077;BME280;40971;44.702;11.030;2022-09-01T06:51:39;101080.09;;;22.04;100.00
55077;BME280;40971;44.702;11.030;2022-09-01T06:54:05;101068.28;;;22.16;100.00
55077;BME280;40971;44.702;11.030;2022-09-01T06:56:31;101021.94;;;21.91;100.00
55077;BME280;40971;44.702;11.030;2022-09-01T06:58:59;101085.19;;;22.25;100.00
55077;BME280;40971;44.702;11.030;2022-09-01T07:01:26;101056.56;;;22.09;100.00
55077;BME280;40971;44.702;11.030;2022-09-01T07:03:53;101091.72;;;22.48;100.00
55077;BME280;40971;44.702;11.030;2022-09-01T07:06:21;101099.50;;;22.41;100.00
55077;BME280;40971;44.702;11.030;2022-09-01T07:08:53;101074.00;;;22.21;100.00
55077;BME280;40971;44.702;11.030;2022-09-01T07:11:23;101102.63;;;22.37;100.00
55077;BME280;40971;44.702;11.030;2022-09-01T07:13:51;101097.50;;;22.26;99.98
55077;BME280;40971;44.702;11.030;2022-09-01T07:16:21;101106.94;;;22.38;98.77
55077;BME280;40971;44.702;11.030;2022-09-01T07:18:49;101066.72;;;22.23;100.00
55077;BME280;40971;44.702;11.030;2022-09-01T07:21:15;101123.41;;;22.51;95.88
55077;BME280;40971;44.702;11.030;2022-09-01T07:23:42;101123.47;;;22.59;94.71
55077;BME280;40971;44.702;11.030;2022-09-01T07:26:08;101131.09;;;22.72;97.56
55077;BME280;40971;44.702;11.030;2022-09-01T07:28:36;101083.66;;;22.22;93.76
55077;BME280;40971;44.702;11.030;2022-09-01T07:31:02;101133.63;;;22.46;93.55
55077;BME280;40971;44.702;11.030;2022-09-01T07:33:30;101135.09;;;22.58;95.59
55077;BME280;40971;44.702;11.030;2022-09-01T07:35:56;101125.81;;;22.62;94.35
55077;BME280;40971;44.702;11.030;2022-09-01T07:38:23;101126.91;;;22.69;95.24
55077;BME280;40971;44.702;11.030;2022-09-01T07:40:49;101117.78;;;22.54;90.53
55077;BME280;40971;44.702;11.030;2022-09-01T07:43:23;101119.50;;;22.81;89.96
55077;BME280;40971;44.702;11.030;2022-09-01T07:45:53;101069.06;;;22.79;89.44
55077;BME280;40971;44.702;11.030;2022-09-01T07:48:23;101111.13;;;23.81;87.91
55077;BME280;40971;44.702;11.030;2022-09-01T07:50:52;101120.25;;;24.39;83.60
55077;BME280;40971;44.702;11.030;2022-09-01T07:53:25;101054.34;;;24.47;80.40
55077;BME280;40971;44.702;11.030;2022-09-01T07:55:56;101024.25;;;24.21;78.68
55077;BME280;40971;44.702;11.030;2022-09-01T07:58:25;101123.31;;;24.76;79.50
55077;BME280;40971;44.702;11.030;2022-09-01T08:00:51;101073.72;;;24.98;78.17
55077;BME280;40971;44.702;11.030;2022-09-01T08:03:19;101111.50;;;25.28;74.37
55077;BME280;40971;44.702;11.030;2022-09-01T08:05:45;101109.81;;;25.43;76.83
55077;BME280;40971;44.702;11.030;2022-09-01T08:08:13;101098.25;;;25.59;76.18
55077;BME280;40971;44.702;11.030;2022-09-01T08:10:40;101102.31;;;25.38;74.44
55077;BME280;40971;44.702;11.030;2022-09-01T08:13:06;101103.88;;;25.88;74.11
55077;BME280;40971;44.702;11.030;2022-09-01T08:15:32;101097.75;;;26.11;73.02
55077;BME280;40971;44.702;11.030;2022-09-01T08:17:58;101088.94;;;25.94;71.29
55077;BME280;40971;44.702;11.030;2022-09-01T08:20:23;101052.19;;;25.88;70.74
55077;BME280;40971;44.702;11.030;2022-09-01T08:22:49;101070.53;;;26.30;71.24
55077;BME280;40971;44.702;11.030;2022-09-01T08:25:15;101096.75;;;26.43;70.60
55077;BME280;40971;44.702;11.030;2022-09-01T08:27:41;101056.84;;;25.94;72.20
55077;BME280;40971;44.702;11.030;2022-09-01T08:30:09;101110.66;;;26.92;71.36
55077;BME280;40971;44.702;11.030;2022-09-01T08:32:37;101119.66;;;26.45;70.56
55077;BME280;40971;44.702;11.030;2022-09-01T08:35:08;101123.00;;;26.47;70.32
55077;BME280;40971;44.702;11.030;2022-09-01T08:37:34;101118.72;;;26.30;72.20
55077;BME280;40971;44.702;11.030;2022-09-01T08:40:00;101133.38;;;26.11;71.75
55077;BME280;40971;44.702;11.030;2022-09-01T08:45:48;101093.63;;;25.12;74.50
55077;BME280;40971;44.702;11.030;2022-09-01T08:48:21;101119.34;;;25.37;73.92
55077;BME280;40971;44.702;11.030;2022-09-01T08:50:54;101133.53;;;24.89;75.41
55077;BME280;40971;44.702;11.030;2022-09-01T08:53:28;101143.75;;;24.35;83.33
55077;BME280;40971;44.702;11.030;2022-09-01T08:55:58;101123.78;;;23.53;85.86
55077;BME280;40971;44.702;11.030;2022-09-01T08:58:25;101147.72;;;23.45;88.49
55077;BME280;40971;44.702;11.030;2022-09-01T09:00:59;101150.06;;;23.22;89.61
55077;BME280;40971;44.702;11.030;2022-09-01T09:06:54;101143.97;;;23.12;91.96
55077;BME280;40971;44.702;11.030;2022-09-01T09:09:12;101139.47;;;22.77;92.46
55077;BME280;40971;44.702;11.030;2022-09-01T09:16:59;101143.00;;;23.57;87.39
55077;BME280;40971;44.702;11.030;2022-09-01T09:19:35;101142.59;;;23.69;84.67
55077;BME280;40971;44.702;11.030;2022-09-01T09:22:05;101151.41;;;23.96;85.04
55077;BME280;40971;44.702;11.030;2022-09-01T09:24:34;101150.56;;;24.88;81.09
55077;BME280;40971;44.702;11.030;2022-09-01T09:27:30;101157.88;;;24.78;76.86
55077;BME280;40971;44.702;11.030;2022-09-01T09:30:00;101037.66;;;24.78;74.52
55077;BME280;40971;44.702;11.030;2022-09-01T09:32:52;101086.13;;;25.07;74.76
55077;BME280;40971;44.702;11.030;2022-09-01T09:37:51;101152.94;;;26.12;69.40
55077;BME280;40971;44.702;11.030;2022-09-01T09:40:24;101145.66;;;26.28;69.09
55077;BME280;40971;44.702;11.030;2022-09-01T09:45:35;101144.38;;;26.24;68.34
55077;BME280;40971;44.702;11.030;2022-09-01T09:48:26;101135.03;;;25.73;68.46
55077;BME280;40971;44.702;11.030;2022-09-01T09:50:50;101038.97;;;25.39;69.32
55077;BME280;40971;44.702;11.030;2022-09-01T09:53:25;101133.81;;;26.62;66.43
55077;BME280;40971;44.702;11.030;2022-09-01T09:56:06;101067.91;;;26.76;65.71
55077;BME280;40971;44.702;11.030;2022-09-01T09:58:39;101139.38;;;26.21;64.96
55077;BME280;40971;44.702;11.030;2022-09-01T10:01:07;101143.53;;;26.16;64.78
55077;BME280;40971;44.702;11.030;2022-09-01T10:03:44;101136.09;;;26.42;67.41
55077;BME280;40971;44.702;11.030;2022-09-01T10:06:13;101123.53;;;26.34;64.40
55077;BME280;40971;44.702;11.030;2022-09-01T10:08:43;101129.94;;;25.86;66.76
55077;BME280;40971;44.702;11.030;2022-09-01T10:11:42;101135.09;;;26.04;68.58
55077;BME280;40971;44.702;11.030;2022-09-01T10:14:28;101137.88;;;25.71;67.04
55077;BME280;40971;44.702;11.030;2022-09-01T10:17:02;101078.91;;;25.96;67.52
55077;BME280;40971;44.702;11.030;2022-09-01T10:19:32;101120.63;;;27.06;63.24
55077;BME280;40971;44.702;11.030;2022-09-01T10:21:57;101100.78;;;27.30;62.66
55077;BME280;40971;44.702;11.030;2022-09-01T10:24:32;101114.81;;;26.94;60.73
55077;BME280;40971;44.702;11.030;2022-09-01T10:27:03;101107.13;;;26.46;62.77
55077;BME280;40971;44.702;11.030;2022-09-01T10:29:40;101108.91;;;26.76;63.17
55077;BME280;40971;44.702;11.030;2022-09-01T10:32:11;101108.38;;;27.41;60.00
55077;BME280;40971;44.702;11.030;2022-09-01T10:34:40;101114.25;;;27.89;60.74
55077;BME280;40971;44.702;11.030;2022-09-01T10:37:07;101104.53;;;27.06;61.18
55077;BME280;40971;44.702;11.030;2022-09-01T10:39:33;101116.09;;;26.98;64.34
55077;BME280;40971;44.702;11.030;2022-09-01T10:42:03;101102.59;;;27.15;60.21
55077;BME280;40971;44.702;11.030;2022-09-01T10:44:56;101103.97;;;27.11;60.04
55077;BME280;40971;44.702;11.030;2022-09-01T10:52:52;101118.00;;;26.05;62.54
55077;BME280;40971;44.702;11.030;2022-09-01T10:55:24;101125.19;;;25.41;64.85
55077;BME280;40971;44.702;11.030;2022-09-01T11:06:06;101115.59;;;26.57;61.67
55077;BME280;40971;44.702;11.030;2022-09-01T11:11:38;101120.88;;;25.95;60.13
55077;BME280;40971;44.702;11.030;2022-09-01T11:14:19;101110.16;;;26.34;58.70
55077;BME280;40971;44.702;11.030;2022-09-01T11:17:23;101117.97;;;26.75;59.89
55077;BME280;40971;44.702;11.030;2022-09-01T11:22:26;101074.81;;;25.61;63.04
55077;BME280;40971;44.702;11.030;2022-09-01T11:30:16;101056.84;;;25.38;55.54
55077;BME280;40971;44.702;11.030;2022-09-01T11:32:45;101115.88;;;26.31;55.33
55077;BME280;40971;44.702;11.030;2022-09-01T11:35:19;101102.59;;;26.46;55.96
55077;BME280;40971;44.702;11.030;2022-09-01T11:37:51;101120.69;;;26.05;58.36
55077;BME280;40971;44.702;11.030;2022-09-01T11:40:29;101104.25;;;26.47;56.38
55077;BME280;40971;44.702;11.030;2022-09-01T11:42:55;101114.56;;;26.58;54.27
55077;BME280;40971;44.702;11.030;2022-09-01T11:45:29;101107.19;;;26.37;55.21
55077;BME280;40971;44.702;11.030;2022-09-01T11:48:01;101111.47;;;26.69;55.61
55077;BME280;40971;44.702;11.030;2022-09-01T11:50:32;101126.94;;;26.59;56.90
55077;BME280;40971;44.702;11.030;2022-09-01T11:53:07;101117.75;;;26.54;54.63
55077;BME280;40971;44.702;11.030;2022-09-01T11:58:04;101117.34;;;26.34;56.72
55077;BME280;40971;44.702;11.030;2022-09-01T12:00:33;101118.97;;;26.12;54.80
55077;BME280;40971;44.702;11.030;2022-09-01T12:03:04;101119.34;;;26.01;54.60
55077;BME280;40971;44.702;11.030;2022-09-01T12:05:35;101105.28;;;26.07;55.17
55077;BME280;40971;44.702;11.030;2022-09-01T12:08:12;101118.00;;;26.67;56.25
55077;BME280;40971;44.702;11.030;2022-09-01T12:10:39;101114.44;;;26.97;52.10
55077;BME280;40971;44.702;11.030;2022-09-01T12:15:42;101121.97;;;27.54;51.52
55077;BME280;40971;44.702;11.030;2022-09-01T12:18:20;101105.72;;;27.71;51.70
55077;BME280;40971;44.702;11.030;2022-09-01T12:20:51;101099.94;;;28.18;51.39
55077;BME280;40971;44.702;11.030;2022-09-01T12:23:30;101101.53;;;28.27;50.28
55077;BME280;40971;44.702;11.030;2022-09-01T12:25:59;101046.59;;;27.79;47.21
55077;BME280;40971;44.702;11.030;2022-09-01T12:28:26;101090.88;;;27.31;48.33
55077;BME280;40971;44.702;11.030;2022-09-01T12:30:56;101092.03;;;27.95;48.73
55077;BME280;40971;44.702;11.030;2022-09-01T12:33:22;101076.81;;;28.02;47.47
55077;BME280;40971;44.702;11.030;2022-09-01T12:35:49;101092.63;;;28.41;49.15
55077;BME280;40971;44.702;11.030;2022-09-01T12:40:46;101090.66;;;27.17;47.24
55077;BME280;40971;44.702;11.030;2022-09-01T12:43:33;101089.09;;;27.90;48.91
55077;BME280;40971;44.702;11.030;2022-09-01T12:45:58;101087.69;;;27.65;47.87
55077;BME280;40971;44.702;11.030;2022-09-01T12:48:26;101082.22;;;27.58;46.77
55077;BME280;40971;44.702;11.030;2022-09-01T12:50:56;101070.84;;;27.71;47.10
55077;BME280;40971;44.702;11.030;2022-09-01T12:53:24;101078.34;;;27.90;47.57
55077;BME280;40971;44.702;11.030;2022-09-01T12:56:04;101056.22;;;27.58;48.43
55077;BME280;40971;44.702;11.030;2022-09-01T12:58:31;101012.91;;;26.11;48.94
55077;BME280;40971;44.702;11.030;2022-09-01T13:03:26;101076.63;;;26.69;50.83
55077;BME280;40971;44.702;11.030;2022-09-01T13:05:55;101024.38;;;26.74;50.30
55077;BME280;40971;44.702;11.030;2022-09-01T13:08:25;100977.31;;;26.56;50.12
55077;BME280;40971;44.702;11.030;2022-09-01T13:11:01;101077.00;;;27.27;48.42
55077;BME280;40971;44.702;11.030;2022-09-01T13:13:30;101080.59;;;27.72;47.96
55077;BME280;40971;44.702;11.030;2022-09-01T13:15:57;101084.00;;;27.66;47.51
55077;BME280;40971;44.702;11.030;2022-09-01T13:18:28;101051.56;;;27.97;48.29
55077;BME280;40971;44.702;11.030;2022-09-01T13:20:55;101077.03;;;28.37;47.88
55077;BME280;40971;44.702;11.030;2022-09-01T13:23:21;101074.63;;;28.06;49.25
55077;BME280;40971;44.702;11.030;2022-09-01T13:25:47;101073.84;;;28.12;49.67
55077;BME280;40971;44.702;11.030;2022-09-01T13:28:14;101092.28;;;28.00;52.37
55077;BME280;40971;44.702;11.030;2022-09-01T13:30:40;101079.38;;;28.25;51.43
55077;BME280;40971;44.702;11.030;2022-09-01T13:33:06;101069.25;;;28.63;47.10
55077;BME280;40971;44.702;11.030;2022-09-01T13:35:31;100964.75;;;28.26;48.60
55077;BME280;40971;44.702;11.030;2022-09-01T13:37:57;100962.94;;;28.33;49.12
55077;BME280;40971;44.702;11.030;2022-09-01T13:40:22;101067.25;;;28.72;51.67
55077;BME280;40971;44.702;11.030;2022-09-01T13:42:50;101067.00;;;29.10;50.74